WA5FSR Weather Reports


Display with metric or nautical units.
time (UTC)temp
F
wind
direction
speed
MPH
gust
MPH
rain 1hr
in
rain 24hr
in
rain mn
in
humidity
%
barometer
mb
20240224114005 43 41 0.0 0.0 0.00 0.00 0.00 82 1021.9
20240224113005 44 41 0.0 0.0 0.00 0.00 0.00 81 1021.8
20240224112005 44 41 0.0 0.0 0.00 0.00 0.00 80 1021.6
20240224111006 45 41 0.0 0.0 0.00 0.00 0.00 78 1021.4
20240224105005 47 41 0.0 0.0 0.00 0.00 0.00 76 1021.2
20240224104005 48 41 0.0 0.0 0.00 0.00 0.00 74 1021.1
20240224103005 49 41 0.0 1.0 0.00 0.00 0.00 74 1021.0
20240224102005 48 40 0.0 2.0 0.00 0.00 0.00 78 1021.0
20240224101005 46 160 0.0 0.0 0.00 0.00 0.00 79 1021.1
20240224095004 48 160 0.0 0.0 0.00 0.00 0.00 76 1021.1
20240224094004 50 160 0.0 0.0 0.00 0.00 0.00 74 1021.3
20240224093004 51 154 0.0 0.0 0.00 0.00 0.00 70 1021.4
20240224092004 51 154 0.0 1.0 0.00 0.00 0.00 71 1021.4
20240224091005 49 154 0.0 0.0 0.00 0.00 0.00 74 1021.4
20240224090005 49 154 0.0 0.0 0.00 0.00 0.00 75 1021.6
20240224085004 50 154 0.0 0.0 0.00 0.00 0.00 74 1021.5
20240224084004 51 154 0.0 0.0 0.00 0.00 0.00 73 1021.5
20240224082005 52 154 0.0 0.0 0.00 0.00 0.00 70 1021.6
20240224081005 52 154 0.0 0.0 0.00 0.00 0.00 71 1021.3
20240224080004 53 154 0.0 0.0 0.00 0.00 0.00 67 1021.1
20240224075005 53 154 0.0 0.0 0.00 0.00 0.00 68 1020.8
20240224074004 53 154 0.0 0.0 0.00 0.00 0.00 68 1020.9
20240224073004 54 154 0.0 0.0 0.00 0.00 0.00 69 1021.1
20240224072005 54 154 0.0 0.0 0.00 0.00 0.00 72 1021.1
20240224070005 53 154 0.0 0.0 0.00 0.00 0.00 74 1021.1
20240224065005 53 154 0.0 0.0 0.00 0.00 0.00 74 1021.2
20240224064004 52 154 0.0 0.0 0.00 0.00 0.00 74 1021.0
20240224062005 52 154 0.0 0.0 0.00 0.00 0.00 73 1021.1
20240224061005 53 154 0.0 0.0 0.00 0.00 0.00 73 1021.0
20240224060005 54 154 0.0 0.0 0.00 0.00 0.00 71 1021.0
20240224055004 54 154 0.0 0.0 0.00 0.00 0.00 68 1020.9
20240224054004 54 154 0.0 0.0 0.00 0.00 0.00 69 1020.8
20240224053005 55 154 0.0 0.0 0.00 0.00 0.00 70 1020.8
20240224050005 54 154 0.0 0.0 0.00 0.00 0.00 71 1020.6
20240224045004 54 154 0.0 0.0 0.00 0.00 0.00 71 1020.8
20240224044005 55 154 0.0 0.0 0.00 0.00 0.00 70 1021.0
20240224043005 55 154 0.0 1.0 0.00 0.00 0.00 70 1021.0
20240224042004 56 143 0.0 1.0 0.00 0.00 0.00 69 1020.9
20240224041005 58 96 0.0 1.0 0.00 0.00 0.00 68 1020.8
20240224035004 56 89 0.0 1.0 0.00 0.00 0.00 65 1020.4
20240224034004 56 89 0.0 1.0 0.00 0.00 0.00 66 1020.4
20240224033004 56 89 0.0 1.0 0.00 0.00 0.00 66 1020.2
20240224032004 56 89 0.0 1.0 0.00 0.00 0.00 62 1020.3
20240224031004 57 89 0.0 1.0 0.00 0.00 0.00 63 1020.2
20240224030005 58 89 0.0 1.0 0.00 0.00 0.00 56 1020.1
20240224025004 58 89 0.0 1.0 0.00 0.00 0.00 61 1020.1
20240224024004 59 89 0.0 0.0 0.00 0.00 0.00 56 1019.6
20240224023004 60 89 0.0 0.0 0.00 0.00 0.00 53 1019.4
20240224022004 61 89 0.0 0.0 0.00 0.00 0.00 53 1019.4
20240224021005 61 89 0.0 0.0 0.00 0.00 0.00 54 1019.5
20240224020005 61 89 0.0 0.0 0.00 0.00 0.00 54 1019.2
20240224015004 61 89 0.0 0.0 0.00 0.00 0.00 57 1019.1
20240224014005 62 89 0.0 1.0 0.00 0.00 0.00 56 1019.1
20240224013004 61 89 0.0 0.0 0.00 0.00 0.00 53 1018.7
20240224012004 62 89 0.0 0.0 0.00 0.00 0.00 53 1018.8
20240224011004 62 89 0.0 0.0 0.00 0.00 0.00 51 1018.7
20240224010005 63 89 0.0 0.0 0.00 0.00 0.00 50 1018.6
20240224003004 69 89 0.0 0.0 0.00 0.00 0.00 43 1018.2
20240224002005 70 89 0.0 0.0 0.00 0.00 0.00 42 1018.2
20240224001005 72 89 0.0 0.0 0.00 0.00 0.00 41 1018.2
20240224000004 72 89 0.0 1.0 0.00 0.00 0.00 40 1018.1
20240223235004 73 89 0.0 1.0 0.00 0.00 0.00 39 1018.0
20240223234005 75 89 1.0 2.0 0.00 0.00 0.00 37 1017.9
20240223233005 76 140 0.0 1.0 0.00 0.00 0.00 36 1017.7
20240223230005 77 53 2.0 3.0 0.00 0.00 0.00 37 1017.4
20240223225005 75 111 2.0 7.0 0.00 0.00 0.00 38 1017.3
20240223224004 76 63 3.0 6.0 0.00 0.00 0.00 37 1017.2
20240223223005 76 64 0.0 7.0 0.00 0.00 0.00 37 1017.2
20240223221005 76 53 5.0 9.0 0.00 0.00 0.00 35 1017.3
20240223220004 76 70 2.0 6.0 0.00 0.00 0.00 36 1017.4
20240223215005 76 83 0.0 7.0 0.00 0.00 0.00 38 1017.5
20240223214006 76 85 2.0 8.0 0.00 0.00 0.00 40 1017.4
20240223213004 76 17 3.0 8.0 0.00 0.00 0.00 40 1017.5
20240223211004 76 68 4.0 10.0 0.00 0.00 0.00 40 1017.6
20240223204004 75 42 3.0 9.0 0.00 0.00 0.00 38 1017.9
20240223203004 75 62 4.0 12.0 0.00 0.00 0.00 39 1018.0
20240223202005 74 55 7.0 12.0 0.00 0.00 0.00 40 1018.1
20240223201005 74 61 3.0 10.0 0.00 0.00 0.00 40 1018.0
20240223200004 74 31 6.0 12.0 0.00 0.00 0.00 41 1018.1
20240223195004 74 332 3.0 12.0 0.00 0.00 0.00 41 1018.2
20240223194005 74 59 5.0 12.0 0.00 0.00 0.00 41 1018.4
20240223192005 73 34 4.0 12.0 0.00 0.00 0.00 43 1018.6
20240223191005 73 30 7.0 13.0 0.00 0.00 0.00 40 1018.9
20240223184004 73 52 6.0 13.0 0.00 0.00 0.00 43 1019.3
20240223182006 72 62 7.0 12.0 0.00 0.00 0.00 45 1019.5
20240223181004 72 46 6.0 13.0 0.00 0.00 0.00 44 1019.8
20240223180005 72 50 7.0 14.0 0.00 0.00 0.00 44 1019.8
20240223175004 71 44 7.0 17.0 0.00 0.00 0.00 45 1020.0
20240223174004 71 59 7.0 15.0 0.00 0.00 0.00 45 1020.1
20240223173004 71 54 6.0 18.0 0.00 0.00 0.00 47 1020.3
20240223172005 70 22 10.0 17.0 0.00 0.00 0.00 45 1020.3
20240223171004 70 49 7.0 16.0 0.00 0.00 0.00 47 1020.1
20240223170004 70 49 6.0 17.0 0.00 0.00 0.00 46 1020.2
20240223165004 70 50 6.0 18.0 0.00 0.00 0.00 48 1020.1
20240223164005 69 46 10.0 16.0 0.00 0.00 0.00 47 1020.1
20240223163005 69 30 7.0 15.0 0.00 0.00 0.00 49 1020.1
20240223162004 68 29 8.0 14.0 0.00 0.00 0.00 49 1020.2
20240223160005 67 59 9.0 17.0 0.00 0.00 0.00 51 1020.1
20240223155008 66 62 8.0 13.0 0.00 0.00 0.00 53 1020.0
20240223153009 65 38 6.0 14.0 0.00 0.00 0.00 58 1019.5
20240223152008 64 30 7.0 15.0 0.00 0.00 0.00 58 1019.3
20240223151008 63 15 9.0 15.0 0.00 0.00 0.00 60 1019.4
20240223150008 62 24 6.0 14.0 0.00 0.00 0.00 62 1019.3
20240223145008 61 17 4.0 8.0 0.00 0.00 0.00 63 1019.2
20240223144008 60 14 3.0 8.0 0.00 0.00 0.00 65 1018.9
20240223143008 59 11 3.0 6.0 0.00 0.00 0.00 67 1018.8
20240223142009 57 349 2.0 3.0 0.00 0.00 0.00 69 1018.7
20240223141009 56 334 1.0 3.0 0.00 0.00 0.00 70 1018.6
20240223140008 54 333 0.0 2.0 0.00 0.00 0.00 72 1018.5
20240223135008 52 326 1.0 1.0 0.00 0.00 0.00 74 1018.4
20240223133009 47 336 0.0 1.0 0.00 0.00 0.00 84 1017.9
20240223132009 46 336 0.0 1.0 0.00 0.00 0.00 82 1017.8
20240223131008 46 336 0.0 0.0 0.00 0.00 0.00 81 1017.7
20240223130008 46 336 0.0 1.0 0.00 0.00 0.00 82 1017.3
20240223125008 46 336 0.0 0.0 0.00 0.00 0.00 81 1017.2
20240223124009 46 336 0.0 0.0 0.00 0.00 0.00 81 1017.0
20240223123009 46 336 0.0 0.0 0.00 0.00 0.00 80 1016.7
20240223122009 46 336 0.0 0.0 0.00 0.00 0.00 79 1016.6
20240223121008 46 336 0.0 0.0 0.00 0.00 0.00 78 1016.4
20240223120009 46 336 0.0 0.0 0.00 0.00 0.00 78 1016.2
20240223115008 47 336 0.0 0.0 0.00 0.00 0.00 75 1016.2